IDOT BID ITEMS (Switch to TOLLWAY)

Show/Hide column: Pay Item # - Pay Item Description - Unit - County - Dist - Contract - Date
Pay Item # Pay Item Description Unit Quantity Award Unit Price County Dist Contract Date Bid Unit Prices:
28000305 TEMPORARY DITCH CHECKS FOOT 332 $18.60 CRAWFORD 7 74915 07/30/2021 $18.60, $10.00
28000305 TEMPORARY DITCH CHECKS FOOT 294 $4.18 WILL 1 61G74 07/30/2021 $8.00, $15.00, $4.18, $9.41, $3.80, $12.00, $10.00
28000305 TEMPORARY DITCH CHECKS FOOT 133 $12.00 LAKE 1 62D86 07/30/2021 $10.00, $10.00, $12.00, $12.00
28000305 TEMPORARY DITCH CHECKS FOOT 48 $12.50 IROQUOIS 3 87725 07/30/2021 $12.50, $9.40
28000305 TEMPORARY DITCH CHECKS FOOT 1,575 $16.73 JEFFERSON 9 78550 07/30/2021 $16.73, $15.00, $21.79
28000305 TEMPORARY DITCH CHECKS FOOT 100 $12.00 LAKE 1 60X57 07/30/2021 $10.00, $15.00, $3.90, $4.06, $12.00
28000305 TEMPORARY DITCH CHECKS FOOT 135 $15.00 LASALLE 3 66L38 07/30/2021 $15.00
28000305 TEMPORARY DITCH CHECKS FOOT 348 $4.00 KANE 1 62G11 07/30/2021 $3.90, $3.90, $12.00, $4.00, $3.90
28000305 TEMPORARY DITCH CHECKS FOOT 50 $12.00 WILL 1 62G10 07/30/2021 $35.00, $15.40, $15.00, $35.00, $12.00
28000305 TEMPORARY DITCH CHECKS FOOT 84 $10.00 VERMILION 5 91606 07/30/2021 $10.00, $13.00, $15.00
28000305 TEMPORARY DITCH CHECKS FOOT 1,587 $13.00 PEORIA 4 68799 07/30/2021 $7.50, $13.00
28000305 TEMPORARY DITCH CHECKS FOOT 1,025 $7.00 WINNEBAGO 2 85706 06/11/2021 $7.00, $7.00, $13.00, $16.32, $15.00
28000305 TEMPORARY DITCH CHECKS FOOT 110 $13.69 SALINE 9 78788 06/11/2021 $13.65, $13.69
28000305 TEMPORARY DITCH CHECKS FOOT 20 $22.00 GRUNDY 3 87741 06/11/2021 $22.00, $12.00
28000305 TEMPORARY DITCH CHECKS FOOT 810 $12.00 JACKSON 9 78660 06/11/2021 $9.20, $12.00
28000305 TEMPORARY DITCH CHECKS FOOT 32 $11.25 MCDONOUGH 4 46929 06/11/2021 $11.25, $20.00
28000305 TEMPORARY DITCH CHECKS FOOT 98 $13.65 SALINE 9 78680 06/11/2021 $13.65, $18.00
28000305 TEMPORARY DITCH CHECKS FOOT 100 $10.00 LIVINGSTON 3 87751 06/11/2021 $22.00, $12.00, $10.00, $7.00
28000305 TEMPORARY DITCH CHECKS FOOT 11 $14.03 JEFFERSON 9 78684 06/11/2021 $14.03, $20.00, $30.00
28000305 TEMPORARY DITCH CHECKS FOOT 64 $10.00 BUREAU 3 87762 06/11/2021 $11.25, $10.00
  • Showing 1 to 20 of 400 entries.